Wetterdaten: Woche 05.09.16 - 11.09.16 (KW36)
Datum Zeit Temp. A. Feuchte A. Luftdruck Regen Wind Richtung Taupunkt Windchill Windben
05.09.2016 00:00 14,7 C 90 % 1016,5 hPa 1,0 l/m 5,4 km/h (2 Bft) O-NO 13,2 C 14,6 C 12,7 km/h (3 Bft)
05.09.2016 01:00 14,2 C 94 % 1017,0 hPa 0,0 l/m 3,0 km/h (1 Bft) O-NO 13,3 C 14,2 C 8,0 km/h (2 Bft)
05.09.2016 02:00 14,2 C 94 % 1016,8 hPa 0,0 l/m 3,1 km/h (1 Bft) O 13,2 C 14,2 C 9,4 km/h (2 Bft)
05.09.2016 03:00 14,1 C 92 % 1016,9 hPa 0,0 l/m 3,2 km/h (1 Bft) O 12,9 C 14,1 C 9,3 km/h (2 Bft)
05.09.2016 04:00 14,1 C 91 % 1016,7 hPa 0,0 l/m 2,5 km/h (1 Bft) O 12,7 C 14,1 C 7,8 km/h (2 Bft)
05.09.2016 05:00 14,1 C 91 % 1017,0 hPa 0,0 l/m 2,7 km/h (1 Bft) O 12,7 C 14,1 C 7,4 km/h (2 Bft)
05.09.2016 06:00 13,9 C 90 % 1017,4 hPa 0,0 l/m 2,6 km/h (1 Bft) NO 12,3 C 13,9 C 6,9 km/h (2 Bft)
05.09.2016 07:00 13,5 C 90 % 1017,9 hPa 0,0 l/m 2,6 km/h (1 Bft) O 11,9 C 13,5 C 6,8 km/h (2 Bft)
05.09.2016 08:00 13,3 C 89 % 1018,3 hPa 0,3 l/m 2,9 km/h (1 Bft) O-NO 11,5 C 13,3 C 8,6 km/h (2 Bft)
05.09.2016 09:00 13,4 C 86 % 1018,8 hPa 0,0 l/m 3,3 km/h (1 Bft) O-NO 11,1 C 13,4 C 8,6 km/h (2 Bft)
05.09.2016 10:00 14,1 C 83 % 1019,4 hPa 0,0 l/m 3,3 km/h (1 Bft) O-NO 11,3 C 14,1 C 7,9 km/h (2 Bft)
05.09.2016 11:00 15,3 C 77 % 1019,7 hPa 0,0 l/m 5,8 km/h (2 Bft) O 11,3 C 15,1 C 14,1 km/h (3 Bft)
05.09.2016 12:00 15,9 C 75 % 1020,0 hPa 0,0 l/m 5,5 km/h (2 Bft) O-NO 11,4 C 15,6 C 12,0 km/h (2 Bft)
05.09.2016 13:00 16,6 C 73 % 1020,4 hPa 0,0 l/m 5,3 km/h (1 Bft) O-NO 11,7 C 16,6 C 14,0 km/h (3 Bft)
05.09.2016 14:00 16,6 C 73 % 1020,7 hPa 0,0 l/m 6,3 km/h (2 Bft) NO 11,7 C 16,4 C 14,8 km/h (3 Bft)
05.09.2016 15:00 17,2 C 71 % 1021,1 hPa 0,0 l/m 4,4 km/h (1 Bft) O-NO 11,8 C 17,2 C 11,8 km/h (2 Bft)
05.09.2016 16:00 17,8 C 68 % 1021,2 hPa 0,0 l/m 4,5 km/h (1 Bft) O-NO 11,8 C 17,8 C 11,7 km/h (2 Bft)
05.09.2016 17:00 17,1 C 72 % 1021,5 hPa 0,0 l/m 3,1 km/h (1 Bft) NO 11,9 C 17,1 C 7,6 km/h (2 Bft)
05.09.2016 18:00 16,9 C 73 % 1021,5 hPa 0,0 l/m 3,7 km/h (1 Bft) O-NO 12,0 C 16,9 C 8,6 km/h (2 Bft)
05.09.2016 19:00 15,8 C 76 % 1021,8 hPa 0,0 l/m 1,6 km/h (1 Bft) O-SO 11,7 C 15,8 C 4,9 km/h (1 Bft)
05.09.2016 20:00 14,1 C 83 % 1022,5 hPa 0,0 l/m 0,4 km/h (0 Bft) O-SO 11,1 C 14,1 C 1,7 km/h (1 Bft)
05.09.2016 21:00 12,2 C 88 % 1023,2 hPa 0,0 l/m 0,1 km/h (0 Bft) O-SO 10,3 C 12,2 C 0,7 km/h (0 Bft)
05.09.2016 22:00 11,0 C 92 % 1023,7 hPa 0,0 l/m 0,1 km/h (0 Bft) O-SO 9,8 C 11,0 C 0,4 km/h (0 Bft)
05.09.2016 23:00 10,2 C 93 % 1024,2 hPa 0,0 l/m 0,0 km/h (0 Bft) O-SO 9,1 C 10,2 C 0,4 km/h (0 Bft)
06.09.2016 00:00 9,4 C 94 % 1024,3 hPa 0,0 l/m 0,1 km/h (0 Bft) O-SO 8,5 C 9,4 C 0,4 km/h (0 Bft)
06.09.2016 01:00 8,7 C 95 % 1024,8 hPa 0,0 l/m 0,0 km/h (0 Bft) O-SO 7,9 C 8,7 C 0,1 km/h (0 Bft)
06.09.2016 02:00 8,1 C 95 % 1025,0 hPa 0,0 l/m 0,0 km/h (0 Bft) O-SO 7,3 C 8,1 C 0,0 km/h (0 Bft)
06.09.2016 03:00 7,6 C 96 % 1025,1 hPa 0,0 l/m 0,0 km/h (0 Bft) O-SO 7,0 C 7,6 C 0,5 km/h (0 Bft)
06.09.2016 04:00 7,2 C 96 % 1025,1 hPa 0,0 l/m 0,1 km/h (0 Bft) O-SO 6,6 C 7,2 C 0,4 km/h (0 Bft)
06.09.2016 05:00 6,8 C 96 % 1025,3 hPa 0,0 l/m 0,1 km/h (0 Bft) O-SO 6,2 C 6,8 C 0,5 km/h (0 Bft)
06.09.2016 06:00 6,8 C 97 % 1025,7 hPa 0,0 l/m 0,0 km/h (0 Bft) S 6,3 C 6,8 C 0,4 km/h (0 Bft)
06.09.2016 07:00 7,0 C 97 % 1026,2 hPa 0,0 l/m 0,0 km/h (0 Bft) S 6,6 C 7,0 C 0,1 km/h (0 Bft)
06.09.2016 08:00 9,7 C 96 % 1026,3 hPa 0,0 l/m 0,2 km/h (0 Bft) S 9,1 C 9,7 C 1,3 km/h (1 Bft)
06.09.2016 09:00 14,2 C 85 % 1026,4 hPa 0,0 l/m 1,2 km/h (1 Bft) S-SW 11,7 C 14,2 C 3,3 km/h (1 Bft)
06.09.2016 10:00 18,0 C 72 % 1026,3 hPa 0,0 l/m 2,8 km/h (1 Bft) NW 12,8 C 18,0 C 7,2 km/h (2 Bft)
06.09.2016 11:00 20,1 C 61 % 1026,1 hPa 0,0 l/m 3,3 km/h (1 Bft) N-NW 12,3 C 20,1 C 8,0 km/h (2 Bft)
06.09.2016 12:00 21,1 C 55 % 1025,8 hPa 0,0 l/m 4,2 km/h (1 Bft) NW 11,8 C 21,1 C 9,1 km/h (2 Bft)
06.09.2016 13:00 22,6 C 48 % 1025,2 hPa 0,0 l/m 4,7 km/h (1 Bft) W 11,0 C 22,6 C 13,4 km/h (3 Bft)
06.09.2016 14:00 22,5 C 47 % 1024,8 hPa 0,0 l/m 4,1 km/h (1 Bft) W-NW 10,7 C 22,5 C 12,9 km/h (3 Bft)
06.09.2016 15:00 22,9 C 46 % 1024,5 hPa 0,0 l/m 4,4 km/h (1 Bft) S-SW 10,5 C 22,8 C 12,2 km/h (2 Bft)
06.09.2016 16:00 23,6 C 43 % 1024,1 hPa 0,0 l/m 4,0 km/h (1 Bft) W-NW 10,2 C 23,6 C 10,1 km/h (2 Bft)
06.09.2016 17:00 23,2 C 44 % 1023,8 hPa 0,0 l/m 4,0 km/h (1 Bft) W-NW 10,2 C 23,2 C 10,1 km/h (2 Bft)
06.09.2016 18:00 22,3 C 46 % 1023,7 hPa 0,0 l/m 3,8 km/h (1 Bft) S 10,2 C 22,3 C 8,9 km/h (2 Bft)
06.09.2016 19:00 20,3 C 51 % 1023,6 hPa 0,0 l/m 2,4 km/h (1 Bft) S-SW 9,9 C 20,3 C 7,1 km/h (2 Bft)
06.09.2016 20:00 17,8 C 61 % 1023,9 hPa 0,0 l/m 0,3 km/h (0 Bft) W 10,0 C 17,8 C 1,9 km/h (1 Bft)
06.09.2016 21:00 14,9 C 73 % 1023,9 hPa 0,0 l/m 0,1 km/h (0 Bft) W 10,1 C 14,9 C 0,5 km/h (0 Bft)
06.09.2016 22:00 13,2 C 81 % 1023,6 hPa 0,0 l/m 0,2 km/h (0 Bft) W 9,9 C 13,2 C 1,6 km/h (1 Bft)
06.09.2016 23:00 11,8 C 86 % 1023,2 hPa 0,0 l/m 0,0 km/h (0 Bft) W 9,5 C 11,8 C 0,1 km/h (0 Bft)
07.09.2016 00:00 10,9 C 88 % 1023,0 hPa 0,0 l/m 0,0 km/h (0 Bft) W 9,0 C 10,9 C 0,4 km/h (0 Bft)
07.09.2016 01:00 9,9 C 91 % 1022,7 hPa 0,0 l/m 0,1 km/h (0 Bft) W 8,5 C 9,9 C 0,7 km/h (0 Bft)
07.09.2016 02:00 9,3 C 92 % 1022,0 hPa 0,0 l/m 0,2 km/h (0 Bft) W 8,2 C 9,3 C 1,7 km/h (1 Bft)
07.09.2016 03:00 9,8 C 91 % 1021,5 hPa 0,0 l/m 0,7 km/h (0 Bft) S-SW 8,4 C 9,8 C 2,8 km/h (1 Bft)
07.09.2016 04:00 10,9 C 86 % 1020,8 hPa 0,0 l/m 1,2 km/h (1 Bft) W-NW 8,7 C 10,9 C 4,8 km/h (1 Bft)
07.09.2016 05:00 12,5 C 81 % 1020,1 hPa 0,0 l/m 1,8 km/h (1 Bft) N 9,4 C 12,5 C 5,3 km/h (1 Bft)
07.09.2016 06:00 12,2 C 83 % 1019,8 hPa 0,0 l/m 1,9 km/h (1 Bft) W-NW 9,3 C 12,2 C 5,0 km/h (1 Bft)
07.09.2016 07:00 11,8 C 86 % 1019,9 hPa 0,0 l/m 1,1 km/h (1 Bft) SW 9,5 C 11,8 C 4,3 km/h (1 Bft)
07.09.2016 08:00 14,8 C 78 % 1019,8 hPa 0,0 l/m 2,2 km/h (1 Bft) W 10,9 C 14,8 C 7,1 km/h (2 Bft)
07.09.2016 09:00 16,6 C 74 % 1019,6 hPa 0,0 l/m 4,4 km/h (1 Bft) S-SW 11,9 C 16,6 C 12,2 km/h (2 Bft)
07.09.2016 10:00 17,1 C 72 % 1019,3 hPa 0,0 l/m 4,1 km/h (1 Bft) NW 12,1 C 17,1 C 11,7 km/h (2 Bft)
07.09.2016 11:00 18,8 C 66 % 1018,9 hPa 0,0 l/m 4,9 km/h (1 Bft) S-SW 12,2 C 18,7 C 12,1 km/h (2 Bft)
07.09.2016 12:00 20,0 C 61 % 1018,4 hPa 0,0 l/m 4,6 km/h (1 Bft) W-NW 12,3 C 20,0 C 11,1 km/h (2 Bft)
07.09.2016 13:00 21,1 C 56 % 1017,9 hPa 0,0 l/m 4,3 km/h (1 Bft) S-SW 11,9 C 21,1 C 11,2 km/h (2 Bft)
07.09.2016 14:00 22,3 C 52 % 1017,5 hPa 0,0 l/m 4,0 km/h (1 Bft) NW 11,8 C 22,3 C 10,1 km/h (2 Bft)
07.09.2016 15:00 23,8 C 48 % 1017,1 hPa 0,0 l/m 3,2 km/h (1 Bft) NO 12,0 C 23,8 C 8,3 km/h (2 Bft)
07.09.2016 16:00 24,5 C 45 % 1016,5 hPa 0,0 l/m 3,0 km/h (1 Bft) NW 11,9 C 24,5 C 8,7 km/h (2 Bft)
07.09.2016 17:00 24,5 C 46 % 1015,9 hPa 0,0 l/m 2,8 km/h (1 Bft) W 11,9 C 24,5 C 7,0 km/h (2 Bft)
07.09.2016 18:00 23,7 C 48 % 1015,6 hPa 0,0 l/m 2,5 km/h (1 Bft) W 12,0 C 23,7 C 5,6 km/h (2 Bft)
07.09.2016 19:00 21,2 C 57 % 1015,3 hPa 0,0 l/m 1,1 km/h (1 Bft) W 12,4 C 21,2 C 3,6 km/h (1 Bft)
07.09.2016 20:00 18,1 C 69 % 1015,4 hPa 0,0 l/m 0,1 km/h (0 Bft) W 12,3 C 18,1 C 0,7 km/h (0 Bft)
07.09.2016 21:00 15,1 C 80 % 1015,5 hPa 0,0 l/m 0,0 km/h (0 Bft) W 11,6 C 15,1 C 0,3 km/h (0 Bft)
07.09.2016 22:00 13,3 C 86 % 1015,3 hPa 0,0 l/m 0,0 km/h (0 Bft) W 11,0 C 13,3 C 0,0 km/h (0 Bft)
07.09.2016 23:00 12,0 C 90 % 1015,2 hPa 0,0 l/m 0,0 km/h (0 Bft) W 10,3 C 12,0 C 0,0 km/h (0 Bft)
08.09.2016 00:00 11,4 C 91 % 1015,0 hPa 0,0 l/m 0,0 km/h (0 Bft) W 10,0 C 11,4 C 0,0 km/h (0 Bft)
08.09.2016 01:00 10,6 C 93 % 1014,7 hPa 0,0 l/m 0,0 km/h (0 Bft) W 9,5 C 10,6 C 0,4 km/h (0 Bft)
08.09.2016 02:00 10,0 C 93 % 1014,3 hPa 0,0 l/m 0,0 km/h (0 Bft) W 8,9 C 10,0 C 0,0 km/h (0 Bft)
08.09.2016 03:00 9,5 C 95 % 1014,0 hPa 0,0 l/m 0,0 km/h (0 Bft) W 8,7 C 9,5 C 0,1 km/h (0 Bft)
08.09.2016 04:00 9,3 C 95 % 1013,6 hPa 0,0 l/m 0,0 km/h (0 Bft) W 8,6 C 9,3 C 0,4 km/h (0 Bft)
08.09.2016 05:00 9,1 C 96 % 1013,5 hPa 0,0 l/m 0,0 km/h (0 Bft) W 8,5 C 9,1 C 0,0 km/h (0 Bft)
08.09.2016 06:00 8,8 C 96 % 1013,6 hPa 0,0 l/m 0,0 km/h (0 Bft) W 8,2 C 8,8 C 0,2 km/h (0 Bft)
08.09.2016 07:00 8,8 C 96 % 1014,0 hPa 0,0 l/m 0,0 km/h (0 Bft) W 8,2 C 8,8 C 0,3 km/h (0 Bft)
08.09.2016 08:00 12,2 C 92 % 1014,0 hPa 0,0 l/m 0,4 km/h (0 Bft) W 11,0 C 12,2 C 1,7 km/h (1 Bft)
08.09.2016 09:00 18,0 C 75 % 1013,9 hPa 0,0 l/m 1,6 km/h (1 Bft) W-NW 13,5 C 18,0 C 3,5 km/h (1 Bft)
08.09.2016 10:00 22,7 C 55 % 1013,7 hPa 0,0 l/m 5,8 km/h (2 Bft) NO 13,0 C 22,6 C 13,3 km/h (3 Bft)
08.09.2016 11:00 24,7 C 47 % 1013,7 hPa 0,0 l/m 5,9 km/h (2 Bft) O-NO 12,7 C 24,7 C 14,0 km/h (3 Bft)
08.09.2016 12:00 25,7 C 44 % 1013,5 hPa 0,0 l/m 5,7 km/h (2 Bft) NO 12,7 C 25,6 C 12,0 km/h (2 Bft)
08.09.2016 13:00 27,0 C 41 % 1013,4 hPa 0,0 l/m 6,0 km/h (2 Bft) O-NO 12,4 C 26,9 C 15,2 km/h (3 Bft)
08.09.2016 14:00 28,0 C 38 % 1013,1 hPa 0,0 l/m 5,3 km/h (1 Bft) O-NO 12,3 C 28,0 C 13,5 km/h (3 Bft)
08.09.2016 15:00 28,5 C 37 % 1013,0 hPa 0,0 l/m 5,7 km/h (2 Bft) NO 12,4 C 28,5 C 14,4 km/h (3 Bft)
08.09.2016 16:00 28,3 C 37 % 1012,9 hPa 0,0 l/m 6,1 km/h (2 Bft) O-NO 12,3 C 28,3 C 16,2 km/h (3 Bft)
08.09.2016 17:00 28,1 C 38 % 1012,7 hPa 0,0 l/m 4,5 km/h (1 Bft) O-NO 12,2 C 28,1 C 12,0 km/h (2 Bft)
08.09.2016 18:00 27,1 C 40 % 1012,7 hPa 0,0 l/m 4,0 km/h (1 Bft) O-NO 12,2 C 27,1 C 8,6 km/h (2 Bft)
08.09.2016 19:00 24,0 C 50 % 1012,7 hPa 0,0 l/m 0,6 km/h (0 Bft) O-NO 12,8 C 24,0 C 2,4 km/h (1 Bft)
08.09.2016 20:00 19,9 C 64 % 1013,3 hPa 0,0 l/m 0,0 km/h (0 Bft) O-NO 12,9 C 19,9 C 0,1 km/h (0 Bft)
08.09.2016 21:00 17,4 C 74 % 1013,8 hPa 0,0 l/m 0,1 km/h (0 Bft) O-NO 12,6 C 17,4 C 0,7 km/h (0 Bft)
08.09.2016 22:00 15,8 C 79 % 1014,2 hPa 0,0 l/m 0,0 km/h (0 Bft) O-NO 12,1 C 15,8 C 0,3 km/h (0 Bft)
08.09.2016 23:00 14,6 C 83 % 1014,8 hPa 0,0 l/m 0,0 km/h (0 Bft) O-NO 11,7 C 14,6 C 0,0 km/h (0 Bft)
09.09.2016 00:00 14,0 C 85 % 1015,2 hPa 0,0 l/m 0,1 km/h (0 Bft) O-NO 11,5 C 14,0 C 0,2 km/h (0 Bft)
09.09.2016 01:00 13,2 C 87 % 1015,6 hPa 0,0 l/m 0,1 km/h (0 Bft) O-NO 11,2 C 13,2 C 0,4 km/h (0 Bft)
09.09.2016 02:00 12,6 C 90 % 1015,6 hPa 0,0 l/m 0,1 km/h (0 Bft) O-NO 10,9 C 12,6 C 0,4 km/h (0 Bft)
09.09.2016 03:00 11,8 C 92 % 1015,6 hPa 0,0 l/m 0,0 km/h (0 Bft) O-NO 10,5 C 11,8 C 0,0 km/h (0 Bft)
09.09.2016 04:00 11,2 C 93 % 1015,7 hPa 0,0 l/m 0,0 km/h (0 Bft) O-NO 10,1 C 11,2 C 0,1 km/h (0 Bft)
09.09.2016 05:00 10,8 C 94 % 1015,8 hPa 0,0 l/m 0,0 km/h (0 Bft) O-NO 9,8 C 10,8 C 0,1 km/h (0 Bft)
09.09.2016 06:00 10,6 C 94 % 1016,0 hPa 0,0 l/m 0,0 km/h (0 Bft) O-NO 9,7 C 10,6 C 0,1 km/h (0 Bft)
09.09.2016 07:00 10,4 C 95 % 1016,3 hPa 0,0 l/m 0,0 km/h (0 Bft) O-NO 9,7 C 10,4 C 0,3 km/h (0 Bft)
09.09.2016 08:00 13,5 C 90 % 1016,4 hPa 0,0 l/m 0,2 km/h (0 Bft) O-NO 11,9 C 13,5 C 0,7 km/h (0 Bft)
09.09.2016 09:00 18,2 C 76 % 1016,5 hPa 0,0 l/m 1,1 km/h (1 Bft) O-NO 13,8 C 18,2 C 2,5 km/h (1 Bft)
09.09.2016 10:00 22,4 C 62 % 1016,5 hPa 0,0 l/m 2,2 km/h (1 Bft) NW 14,7 C 22,4 C 4,7 km/h (1 Bft)
09.09.2016 11:00 24,5 C 52 % 1016,2 hPa 0,0 l/m 2,4 km/h (1 Bft) NW 14,0 C 24,5 C 5,6 km/h (2 Bft)
09.09.2016 12:00 25,4 C 48 % 1015,9 hPa 0,0 l/m 3,0 km/h (1 Bft) N-NW 13,6 C 25,4 C 6,4 km/h (2 Bft)
09.09.2016 13:00 26,5 C 46 % 1015,6 hPa 0,0 l/m 3,5 km/h (1 Bft) W-NW 13,9 C 26,5 C 8,0 km/h (2 Bft)
09.09.2016 14:00 27,7 C 42 % 1015,4 hPa 0,0 l/m 3,6 km/h (1 Bft) W-NW 13,7 C 27,7 C 7,8 km/h (2 Bft)
09.09.2016 15:00 27,1 C 43 % 1015,0 hPa 0,0 l/m 2,8 km/h (1 Bft) W-NW 13,5 C 27,1 C 7,5 km/h (2 Bft)
09.09.2016 16:00 26,7 C 45 % 1014,7 hPa 0,0 l/m 2,9 km/h (1 Bft) SW 13,6 C 26,7 C 7,5 km/h (2 Bft)
09.09.2016 17:00 26,1 C 46 % 1014,7 hPa 0,0 l/m 3,5 km/h (1 Bft) SW 13,6 C 26,1 C 8,5 km/h (2 Bft)
09.09.2016 18:00 25,4 C 47 % 1014,8 hPa 0,0 l/m 3,2 km/h (1 Bft) W 13,3 C 25,4 C 8,3 km/h (2 Bft)
09.09.2016 19:00 23,3 C 53 % 1014,9 hPa 0,0 l/m 1,7 km/h (1 Bft) W 13,2 C 23,3 C 4,9 km/h (1 Bft)
09.09.2016 20:00 20,1 C 65 % 1015,3 hPa 0,0 l/m 0,3 km/h (0 Bft) W-NW 13,3 C 20,1 C 2,0 km/h (1 Bft)
09.09.2016 21:00 17,5 C 75 % 1015,8 hPa 0,0 l/m 0,1 km/h (0 Bft) W-NW 13,1 C 17,5 C 0,9 km/h (0 Bft)
09.09.2016 22:00 15,9 C 82 % 1016,1 hPa 0,0 l/m 0,0 km/h (0 Bft) W-NW 12,8 C 15,9 C 0,0 km/h (0 Bft)
09.09.2016 23:00 14,5 C 87 % 1016,1 hPa 0,0 l/m 0,0 km/h (0 Bft) W-NW 12,3 C 14,5 C 0,0 km/h (0 Bft)
10.09.2016 00:00 13,8 C 89 % 1016,1 hPa 0,0 l/m 0,0 km/h (0 Bft) W-NW 12,0 C 13,8 C 0,3 km/h (0 Bft)
10.09.2016 01:00 13,1 C 91 % 1016,0 hPa 0,0 l/m 0,0 km/h (0 Bft) W-NW 11,6 C 13,1 C 0,0 km/h (0 Bft)
10.09.2016 02:00 12,6 C 92 % 1015,9 hPa 0,0 l/m 0,1 km/h (0 Bft) W-NW 11,3 C 12,6 C 0,5 km/h (0 Bft)
10.09.2016 03:00 12,0 C 93 % 1015,9 hPa 0,0 l/m 0,0 km/h (0 Bft) W-NW 10,9 C 12,0 C 0,3 km/h (0 Bft)
10.09.2016 04:00 11,4 C 94 % 1015,8 hPa 0,0 l/m 0,0 km/h (0 Bft) W-NW 10,4 C 11,4 C 0,4 km/h (0 Bft)
10.09.2016 05:00 10,7 C 94 % 1015,8 hPa 0,0 l/m 0,0 km/h (0 Bft) W-NW 9,8 C 10,7 C 0,3 km/h (0 Bft)
10.09.2016 06:00 10,4 C 95 % 1015,9 hPa 0,0 l/m 0,0 km/h (0 Bft) W-NW 9,6 C 10,4 C 0,1 km/h (0 Bft)
10.09.2016 07:00 10,2 C 95 % 1016,1 hPa 0,0 l/m 0,0 km/h (0 Bft) W-NW 9,5 C 10,2 C 0,3 km/h (0 Bft)
10.09.2016 08:00 12,9 C 91 % 1016,0 hPa 0,0 l/m 0,3 km/h (0 Bft) W-NW 11,4 C 12,9 C 1,2 km/h (1 Bft)
10.09.2016 09:00 18,0 C 76 % 1016,0 hPa 0,0 l/m 1,2 km/h (1 Bft) W-NW 13,7 C 18,0 C 2,9 km/h (1 Bft)
10.09.2016 10:00 23,1 C 62 % 1015,8 hPa 0,0 l/m 1,6 km/h (1 Bft) W-NW 15,2 C 23,1 C 3,5 km/h (1 Bft)
10.09.2016 11:00 26,4 C 46 % 1015,5 hPa 0,0 l/m 2,8 km/h (1 Bft) W-NW 13,7 C 26,4 C 6,4 km/h (2 Bft)
10.09.2016 12:00 27,1 C 41 % 1015,2 hPa 0,0 l/m 3,1 km/h (1 Bft) W-NW 12,6 C 27,1 C 6,7 km/h (2 Bft)
10.09.2016 13:00 27,6 C 39 % 1014,7 hPa 0,0 l/m 2,9 km/h (1 Bft) SW 12,4 C 27,6 C 7,6 km/h (2 Bft)
10.09.2016 14:00 27,9 C 38 % 1014,2 hPa 0,0 l/m 1,7 km/h (1 Bft) N 12,3 C 27,9 C 4,3 km/h (1 Bft)
10.09.2016 15:00 28,6 C 36 % 1013,7 hPa 0,0 l/m 2,1 km/h (1 Bft) NW 12,1 C 28,6 C 5,1 km/h (1 Bft)
10.09.2016 16:00 29,7 C 34 % 1013,2 hPa 0,0 l/m 2,6 km/h (1 Bft) NO 12,0 C 29,7 C 6,3 km/h (2 Bft)
10.09.2016 17:00 29,0 C 36 % 1013,0 hPa 0,0 l/m 3,3 km/h (1 Bft) NW 12,2 C 29,0 C 7,0 km/h (2 Bft)
10.09.2016 18:00 28,4 C 38 % 1013,0 hPa 0,0 l/m 1,7 km/h (1 Bft) N-NO 12,6 C 28,4 C 3,6 km/h (1 Bft)
10.09.2016 19:00 25,4 C 51 % 1013,3 hPa 0,0 l/m 1,7 km/h (1 Bft) O-NO 14,4 C 25,4 C 4,3 km/h (1 Bft)
10.09.2016 20:00 22,1 C 62 % 1014,0 hPa 0,0 l/m 0,1 km/h (0 Bft) O-NO 14,5 C 22,1 C 0,5 km/h (0 Bft)
10.09.2016 21:00 19,2 C 73 % 1014,6 hPa 0,0 l/m 0,1 km/h (0 Bft) O-NO 14,1 C 19,2 C 0,9 km/h (0 Bft)
10.09.2016 22:00 17,7 C 78 % 1015,0 hPa 0,0 l/m 0,1 km/h (0 Bft) O-NO 13,9 C 17,7 C 0,5 km/h (0 Bft)
10.09.2016 23:00 16,1 C 84 % 1015,2 hPa 0,0 l/m 0,0 km/h (0 Bft) O-NO 13,3 C 16,1 C 0,6 km/h (0 Bft)
11.09.2016 00:00 15,1 C 86 % 1015,2 hPa 0,0 l/m 0,0 km/h (0 Bft) O-NO 12,8 C 15,1 C 0,0 km/h (0 Bft)
11.09.2016 01:00 13,9 C 89 % 1015,1 hPa 0,0 l/m 0,0 km/h (0 Bft) O-NO 12,1 C 13,9 C 0,0 km/h (0 Bft)
11.09.2016 02:00 13,3 C 91 % 1015,2 hPa 0,0 l/m 0,0 km/h (0 Bft) O-NO 11,9 C 13,3 C 0,3 km/h (0 Bft)
11.09.2016 03:00 12,7 C 93 % 1015,3 hPa 0,0 l/m 0,1 km/h (0 Bft) O-NO 11,6 C 12,7 C 0,7 km/h (0 Bft)
11.09.2016 04:00 12,4 C 93 % 1015,5 hPa 0,0 l/m 0,0 km/h (0 Bft) O-NO 11,3 C 12,4 C 0,1 km/h (0 Bft)
11.09.2016 05:00 11,9 C 94 % 1015,7 hPa 0,0 l/m 0,0 km/h (0 Bft) O-NO 10,9 C 11,9 C 0,0 km/h (0 Bft)
11.09.2016 06:00 11,5 C 95 % 1015,8 hPa 0,0 l/m 0,0 km/h (0 Bft) O-NO 10,7 C 11,5 C 0,0 km/h (0 Bft)
11.09.2016 07:00 11,5 C 96 % 1016,6 hPa 0,0 l/m 0,1 km/h (0 Bft) O-NO 10,8 C 11,5 C 0,7 km/h (0 Bft)
11.09.2016 08:00 14,3 C 90 % 1017,0 hPa 0,0 l/m 0,4 km/h (0 Bft) NO 12,6 C 14,3 C 1,6 km/h (1 Bft)
11.09.2016 09:00 18,0 C 81 % 1017,4 hPa 0,0 l/m 0,6 km/h (0 Bft) NO 14,6 C 18,0 C 1,7 km/h (1 Bft)
11.09.2016 10:00 22,7 C 57 % 1017,6 hPa 0,0 l/m 2,2 km/h (1 Bft) NO 13,7 C 22,7 C 5,1 km/h (1 Bft)
11.09.2016 11:00 25,0 C 47 % 1017,3 hPa 0,0 l/m 3,0 km/h (1 Bft) NW 12,8 C 25,0 C 7,2 km/h (2 Bft)
11.09.2016 12:00 25,8 C 44 % 1017,1 hPa 0,0 l/m 2,7 km/h (1 Bft) N-NO 12,6 C 25,8 C 5,5 km/h (2 Bft)
11.09.2016 13:00 27,0 C 41 % 1016,8 hPa 0,0 l/m 3,2 km/h (1 Bft) O-NO 12,6 C 27,0 C 8,6 km/h (2 Bft)
11.09.2016 14:00 27,8 C 40 % 1016,3 hPa 0,0 l/m 2,9 km/h (1 Bft) W 13,1 C 27,8 C 8,2 km/h (2 Bft)
11.09.2016 15:00 28,2 C 39 % 1015,8 hPa 0,0 l/m 2,9 km/h (1 Bft) O-NO 13,1 C 28,2 C 8,0 km/h (2 Bft)
11.09.2016 16:00 28,5 C 38 % 1015,5 hPa 0,0 l/m 2,3 km/h (1 Bft) NO 12,9 C 28,5 C 6,6 km/h (2 Bft)
11.09.2016 17:00 27,8 C 40 % 1015,2 hPa 0,0 l/m 2,1 km/h (1 Bft) W-SW 13,0 C 27,8 C 4,6 km/h (1 Bft)
11.09.2016 18:00 26,0 C 46 % 1015,3 hPa 0,0 l/m 1,2 km/h (1 Bft) W-SW 13,6 C 26,0 C 2,8 km/h (1 Bft)
11.09.2016 19:00 23,1 C 58 % 1015,6 hPa 0,0 l/m 0,0 km/h (0 Bft) N 14,4 C 23,1 C 0,4 km/h (0 Bft)
11.09.2016 20:00 20,2 C 69 % 1016,1 hPa 0,0 l/m 0,1 km/h (0 Bft) N 14,2 C 20,2 C 0,5 km/h (0 Bft)
11.09.2016 21:00 18,4 C 74 % 1016,3 hPa 0,0 l/m 0,0 km/h (0 Bft) N 13,8 C 18,4 C 0,0 km/h (0 Bft)
11.09.2016 22:00 16,8 C 80 % 1016,7 hPa 0,0 l/m 0,0 km/h (0 Bft) N 13,3 C 16,8 C 0,1 km/h (0 Bft)
11.09.2016 23:00 15,6 C 84 % 1016,8 hPa 0,0 l/m 0,0 km/h (0 Bft) N 12,8 C 15,6 C 0,0 km/h (0 Bft)
Min-Datum _ 06.09.16 10.09.16 08.09.16 - 11.09.16 - 06.09.16 06.09.16 11.09.16
_ Min-Zeit 05:45 16:30 19:00 - 23:00 - 05:45 05:45 23:00
Minimum _ 6,6 C 32 % 1012,5 hPa - 0,0 km/h (0 Bft) - 6,0 C 6,6 C 0,0 km/h (0 Bft)
Max-Datum _ 10.09.16 06.09.16 06.09.16 05.09.16 05.09.16 - 10.09.16 10.09.16 08.09.16
_ Max-Zeit 17:05 08:05 10:00 00:50 12:02 - 10:15 17:05 16:45
Maximum _ 29,9 C 98 % 1026,5 hPa 1,0 l/m 11,3 km/h
O-NO (2 Bft)
- 16,1 C 29,9 C 22,5 km/h
O-NO (4 Bft)
Durchschnitt _ 17,5 C 72 % 1017,6 hPa #1,3 l/m 1,8 km/h (1 Bft) O-NO 11,5 C 17,5 C 4,6 km/h (1 Bft)